createdAt,value
2018-04-02T00:00:39.866Z,33.70
2018-04-02T00:02:45.459Z,32.17
2018-04-02T00:04:51.539Z,32.60
2018-04-02T00:06:56.861Z,34.40
2018-04-02T00:09:02.564Z,31.33
2018-04-02T00:11:08.924Z,36.20
2018-04-02T00:13:14.453Z,30.43
2018-04-02T00:15:21.040Z,31.63
2018-04-02T00:17:27.536Z,32.43
2018-04-02T00:19:33.569Z,29.10
2018-04-02T00:21:40.352Z,27.07
2018-04-02T00:23:48.232Z,31.33
2018-04-02T00:25:54.454Z,30.00
2018-04-02T00:28:01.048Z,31.47
2018-04-02T00:30:16.218Z,29.87
2018-04-02T00:32:26.445Z,31.20
2018-04-02T00:34:32.218Z,30.37
2018-04-02T00:36:38.425Z,29.03
2018-04-02T00:38:43.867Z,29.97
2018-04-02T00:40:50.039Z,33.73
2018-04-02T00:42:55.584Z,29.37
2018-04-02T00:45:01.168Z,30.90
2018-04-02T00:47:08.178Z,32.37
2018-04-02T00:49:13.884Z,30.43
2018-04-02T00:51:20.155Z,33.17
2018-04-02T00:53:26.889Z,27.37
2018-04-02T00:55:32.151Z,34.70
2018-04-02T00:57:37.500Z,28.90
2018-04-02T00:59:43.361Z,29.63
2018-04-02T01:01:48.718Z,32.70
2018-04-02T01:03:55.116Z,32.60
2018-04-02T01:06:01.738Z,28.17
2018-04-02T01:08:07.058Z,32.47
2018-04-02T01:10:12.695Z,33.67
2018-04-02T01:12:19.428Z,31.80
2018-04-02T01:14:25.044Z,33.40
2018-04-02T01:16:30.884Z,31.30
2018-04-02T01:18:36.868Z,32.30
2018-04-02T01:20:42.396Z,32.87
2018-04-02T01:22:47.772Z,29.20
2018-04-02T01:24:54.598Z,31.37
2018-04-02T01:27:00.310Z,28.47
2018-04-02T01:29:06.120Z,34.40
2018-04-02T01:31:12.344Z,28.57
2018-04-02T01:33:18.014Z,32.10
2018-04-02T01:35:24.016Z,30.80
2018-04-02T01:37:30.708Z,31.40
2018-04-02T01:39:37.044Z,38.73
2018-04-02T01:41:42.556Z,30.67
2018-04-02T01:43:48.164Z,34.13
2018-04-02T01:45:53.456Z,30.57
2018-04-02T01:47:59.488Z,29.63
2018-04-02T01:50:05.064Z,31.70
2018-04-02T01:52:10.400Z,28.40
2018-04-02T01:54:15.677Z,37.07
2018-04-02T01:56:21.920Z,31.43
2018-04-02T01:58:28.468Z,35.17
2018-04-02T02:00:34.048Z,31.10
2018-04-02T02:02:40.320Z,33.80
2018-04-02T02:04:46.272Z,32.97
2018-04-02T02:06:52.251Z,35.80
2018-04-02T02:08:58.888Z,32.67
2018-04-02T02:11:05.279Z,29.30
2018-04-02T02:13:10.631Z,30.73
2018-04-02T02:15:16.141Z,35.63
2018-04-02T02:17:22.103Z,29.70
2018-04-02T02:19:28.112Z,30.20
2018-04-02T02:21:33.350Z,32.47
2018-04-02T02:23:39.635Z,29.87
2018-04-02T02:25:45.399Z,31.70
2018-04-02T02:27:51.516Z,34.77
2018-04-02T02:29:57.814Z,30.43
2018-04-02T02:32:04.188Z,33.77
2018-04-02T02:34:10.016Z,31.43
2018-04-02T02:36:15.880Z,31.37
2018-04-02T02:38:22.123Z,32.07
2018-04-02T02:40:27.501Z,33.37
2018-04-02T02:42:33.930Z,32.77
2018-04-02T02:44:40.478Z,31.17
2018-04-02T02:46:47.006Z,29.93
2018-04-02T02:48:52.752Z,34.00
2018-04-02T02:50:58.197Z,35.20
2018-04-02T02:53:04.498Z,32.23
2018-04-02T02:55:10.355Z,36.40
2018-04-02T02:57:16.433Z,39.33
2018-04-02T02:59:23.224Z,33.30
2018-04-02T03:01:28.601Z,34.23
2018-04-02T03:03:33.897Z,32.43
2018-04-02T03:05:39.612Z,37.80
2018-04-02T03:07:46.066Z,34.67
2018-04-02T03:09:53.019Z,35.37
2018-04-02T03:11:59.184Z,34.67
2018-04-02T03:14:04.902Z,37.73
2018-04-02T03:16:11.949Z,35.20
2018-04-02T03:18:18.067Z,34.33
2018-04-02T03:20:23.965Z,33.63
2018-04-02T03:22:30.665Z,37.80
2018-04-02T03:24:36.389Z,39.20
2018-04-02T03:26:42.241Z,35.17
2018-04-02T03:28:49.204Z,37.30
2018-04-02T03:30:55.607Z,38.70
2018-04-02T03:33:01.385Z,36.70
2018-04-02T03:35:08.212Z,36.37
2018-04-02T03:37:14.060Z,40.10
2018-04-02T03:39:19.308Z,32.20
2018-04-02T03:41:25.992Z,33.23
2018-04-02T03:43:31.970Z,34.83
2018-04-02T03:45:38.172Z,34.60
2018-04-02T03:47:44.873Z,34.90
2018-04-02T03:49:50.212Z,35.97
2018-04-02T03:51:55.930Z,34.30
2018-04-02T03:54:01.922Z,36.77
2018-04-02T03:56:07.773Z,39.87
2018-04-02T03:58:14.534Z,39.53
2018-04-02T04:00:21.108Z,35.80
2018-04-02T04:02:27.057Z,36.73
2018-04-02T04:04:33.192Z,37.67
2018-04-02T04:06:39.096Z,35.37
2018-04-02T04:08:45.609Z,42.03
2018-04-02T04:10:51.656Z,41.50
2018-04-02T04:12:57.348Z,38.13
2018-04-02T04:15:03.732Z,38.50
2018-04-02T04:17:09.198Z,40.60
2018-04-02T04:19:14.899Z,39.93
2018-04-02T04:21:20.196Z,35.97
2018-04-02T04:23:27.268Z,38.40
2018-04-02T04:25:33.825Z,39.80
2018-04-02T04:27:39.967Z,39.10
2018-04-02T04:29:46.408Z,42.30
2018-04-02T04:31:52.368Z,38.23
2018-04-02T04:33:58.400Z,38.80
2018-04-02T04:36:04.810Z,40.07
2018-04-02T04:38:11.528Z,45.30
2018-04-02T04:40:18.025Z,39.60
2018-04-02T04:42:23.634Z,40.30
2018-04-02T04:44:29.821Z,37.07
2018-04-02T04:46:35.400Z,39.50
2018-04-02T04:48:40.701Z,40.87
2018-04-02T04:50:46.568Z,40.60
2018-04-02T04:52:53.154Z,38.50
2018-04-02T04:54:58.875Z,35.23
2018-04-02T04:57:04.220Z,36.67
2018-04-02T04:59:10.207Z,36.80
2018-04-02T05:01:16.113Z,35.87
2018-04-02T05:03:21.996Z,34.00
2018-04-02T05:05:27.668Z,34.90
2018-04-02T05:07:33.704Z,35.13
2018-04-02T05:09:40.864Z,35.23
2018-04-02T05:11:46.956Z,37.30
2018-04-02T05:13:52.576Z,34.53
2018-04-02T05:15:59.760Z,38.50
2018-04-02T05:18:05.512Z,33.97
2018-04-02T05:20:11.037Z,36.80
2018-04-02T05:22:17.383Z,37.20
2018-04-02T05:24:23.500Z,34.10
2018-04-02T05:26:29.696Z,34.23
2018-04-02T05:30:50.196Z,34.60
2018-04-02T05:32:59.699Z,37.67
2018-04-02T05:35:05.942Z,34.73
2018-04-02T05:37:11.438Z,34.27
2018-04-02T05:39:17.428Z,34.47
2018-04-02T05:41:23.719Z,36.10
2018-04-02T05:43:29.846Z,37.90
2018-04-02T05:45:35.403Z,35.63
2018-04-02T05:47:41.027Z,37.50
2018-04-02T05:49:46.925Z,34.27
2018-04-02T05:51:52.928Z,35.47
2018-04-02T05:53:59.289Z,33.20
2018-04-02T05:56:05.524Z,41.43
2018-04-02T05:58:11.605Z,39.07
2018-04-02T06:00:17.409Z,34.60
2018-04-02T06:02:23.525Z,37.13
2018-04-02T06:04:29.027Z,34.80
2018-04-02T06:06:34.519Z,33.00
2018-04-02T06:08:40.515Z,35.40
2018-04-02T06:10:46.224Z,33.10
2018-04-02T06:12:52.784Z,31.47
2018-04-02T06:14:59.481Z,32.57
2018-04-02T06:17:06.533Z,31.43
2018-04-02T06:19:12.092Z,32.27
2018-04-02T06:21:18.855Z,32.87
2018-04-02T06:23:24.811Z,32.30
2018-04-02T06:25:30.565Z,31.80
2018-04-02T06:27:36.348Z,30.20
2018-04-02T06:29:42.518Z,33.33
2018-04-02T06:31:48.716Z,33.40
2018-04-02T06:33:54.826Z,30.93
2018-04-02T06:36:00.888Z,33.80
2018-04-02T06:38:06.619Z,34.60
2018-04-02T06:40:13.086Z,33.50
2018-04-02T06:42:19.529Z,32.00
2018-04-02T06:44:25.249Z,28.10
2018-04-02T06:46:31.731Z,32.23
2018-04-02T06:48:37.688Z,30.53
2018-04-02T06:50:43.561Z,32.07
2018-04-02T06:52:49.930Z,29.10
2018-04-02T06:54:55.636Z,32.90
2018-04-02T06:57:01.557Z,29.13
2018-04-02T06:59:07.238Z,32.23
2018-04-02T07:01:13.633Z,29.53
2018-04-02T07:03:20.829Z,30.03
2018-04-02T07:05:28.110Z,30.47
2018-04-02T07:07:33.594Z,30.53
2018-04-02T07:09:39.361Z,56.83
2018-04-02T07:11:46.387Z,402.13
2018-04-02T07:13:51.915Z,512.30
2018-04-02T07:15:58.359Z,662.93
2018-04-02T07:18:07.118Z,523.07
2018-04-02T07:20:17.055Z,484.07
2018-04-02T07:22:27.518Z,845.97
2018-04-02T07:24:33.200Z,1084.70
2018-04-02T07:26:38.624Z,1380.67
2018-04-02T07:28:44.805Z,1079.40
2018-04-02T07:30:50.610Z,1673.93
2018-04-02T07:32:56.856Z,1491.97
2018-04-02T07:35:02.538Z,1984.83
2018-04-02T07:37:08.376Z,1692.63
2018-04-02T07:39:14.596Z,1559.20
2018-04-02T07:41:20.064Z,1358.70
2018-04-02T07:43:26.168Z,832.63
2018-04-02T07:45:32.764Z,830.90
2018-04-02T07:47:38.741Z,1028.67
2018-04-02T07:49:45.652Z,1098.60
2018-04-02T07:51:51.684Z,991.17
2018-04-02T07:53:58.078Z,1072.57
2018-04-02T07:56:04.136Z,944.20
2018-04-02T07:58:09.489Z,1157.37
2018-04-02T08:00:14.850Z,1124.03
2018-04-02T08:02:21.865Z,928.37
2018-04-02T08:04:27.488Z,760.10
2018-04-02T08:06:32.880Z,555.00
2018-04-02T08:08:38.594Z,441.83
2018-04-02T08:10:44.176Z,280.23
2018-04-02T08:12:49.940Z,154.70
2018-04-02T08:14:57.092Z,566.77
2018-04-02T08:17:02.653Z,1252.10
2018-04-02T08:19:08.573Z,954.53
2018-04-02T08:21:15.008Z,626.57
2018-04-02T08:23:21.012Z,408.33
2018-04-02T08:25:26.838Z,518.13
2018-04-02T08:27:32.956Z,488.30
2018-04-02T08:29:39.057Z,644.20
2018-04-02T08:31:44.799Z,445.43
2018-04-02T08:33:50.364Z,330.67
2018-04-02T08:35:56.428Z,192.50
2018-04-02T08:38:02.219Z,873.83
2018-04-02T08:40:08.245Z,451.17
2018-04-02T08:42:13.592Z,318.60
2018-04-02T08:44:19.029Z,230.07
2018-04-02T08:46:25.473Z,205.90
2018-04-02T08:48:31.104Z,159.87
2018-04-02T08:50:36.596Z,187.80
2018-04-02T08:52:42.332Z,275.10
2018-04-02T08:54:48.322Z,202.87
2018-04-02T08:56:54.369Z,78.77
2018-04-02T08:58:59.957Z,78.67
2018-04-02T09:01:05.231Z,230.07
2018-04-02T09:03:11.156Z,574.30
2018-04-02T09:05:16.769Z,495.97
2018-04-02T09:07:22.630Z,446.60
2018-04-02T09:09:28.100Z,312.93
2018-04-02T09:11:34.161Z,1511.17
2018-04-02T09:13:39.621Z,841.67
2018-04-02T09:15:48.735Z,736.93
2018-04-02T09:17:55.091Z,597.10
2018-04-02T09:20:00.741Z,520.53
2018-04-02T09:22:06.058Z,537.13
2018-04-02T09:24:12.925Z,401.80
2018-04-02T09:26:19.884Z,304.33
2018-04-02T09:28:26.296Z,500.33
2018-04-02T09:30:31.975Z,420.17
2018-04-02T09:32:37.284Z,463.20
2018-04-02T09:34:43.343Z,332.40
2018-04-02T09:36:49.052Z,139.70
2018-04-02T09:38:54.356Z,60.20
2018-04-02T09:40:59.784Z,38.83
2018-04-02T09:43:06.790Z,33.33
2018-04-02T09:45:12.451Z,32.00
2018-04-02T09:47:17.792Z,32.93
2018-04-02T09:49:23.377Z,30.13
2018-04-02T09:51:28.726Z,859.17
2018-04-02T09:53:34.071Z,596.47
2018-04-02T09:55:39.769Z,211.67
2018-04-02T09:57:45.112Z,281.90
2018-04-02T09:59:50.389Z,636.57
2018-04-02T10:01:56.350Z,703.33
2018-04-02T10:04:03.081Z,444.93
2018-04-02T10:06:09.249Z,575.57
2018-04-02T10:08:14.875Z,460.07
2018-04-02T10:10:20.832Z,144.77
2018-04-02T10:12:26.312Z,80.00
2018-04-02T10:14:31.870Z,59.10
2018-04-02T10:16:37.257Z,42.90
2018-04-02T10:18:42.762Z,27.53
2018-04-02T10:20:48.476Z,24.87
2018-04-02T10:22:53.870Z,22.60
2018-04-02T10:24:59.248Z,252.73
2018-04-02T10:27:04.908Z,56.47
2018-04-02T10:29:10.261Z,31.43
2018-04-02T10:31:16.190Z,25.33
2018-04-02T10:33:22.063Z,23.33
2018-04-02T10:35:27.397Z,16.73
2018-04-02T10:37:32.816Z,124.33
2018-04-02T10:39:38.772Z,382.97
2018-04-02T10:41:44.136Z,547.23
2018-04-02T10:43:50.018Z,228.43
2018-04-02T10:45:55.728Z,60.10
2018-04-02T10:48:01.025Z,45.07
2018-04-02T10:50:06.788Z,26.23
2018-04-02T10:52:13.080Z,21.07
2018-04-02T10:54:18.303Z,20.13
2018-04-02T10:56:25.513Z,19.10
2018-04-02T10:58:31.161Z,16.70
2018-04-02T11:00:36.857Z,17.00
2018-04-02T11:02:42.220Z,420.17
2018-04-02T11:04:47.875Z,202.93
2018-04-02T11:06:53.189Z,71.97
2018-04-02T11:08:58.684Z,31.87
2018-04-02T11:11:05.132Z,176.63
2018-04-02T11:13:10.556Z,405.63
2018-04-02T11:15:15.953Z,557.47
2018-04-02T11:17:21.745Z,357.10
2018-04-02T11:19:27.721Z,171.70
2018-04-02T11:21:33.080Z,56.20
2018-04-02T11:23:38.644Z,36.53
2018-04-02T11:25:44.008Z,19.63
2018-04-02T11:27:49.375Z,18.07
2018-04-02T11:29:54.970Z,17.53
2018-04-02T11:32:00.456Z,13.93
2018-04-02T11:34:05.808Z,16.83
2018-04-02T11:36:11.407Z,16.27
2018-04-02T11:38:16.790Z,23.03
2018-04-02T11:40:22.154Z,493.83
2018-04-02T11:42:27.888Z,129.00
2018-04-02T11:44:33.114Z,96.67
2018-04-02T11:46:38.444Z,185.93
2018-04-02T11:48:43.976Z,57.17
2018-04-02T11:50:49.265Z,29.60
2018-04-02T11:52:54.668Z,21.30
2018-04-02T11:55:00.191Z,46.10
2018-04-02T11:57:06.376Z,38.50
2018-04-02T12:03:19.064Z,233.37
2018-04-02T12:05:24.367Z,651.30
2018-04-02T12:07:29.914Z,451.37
2018-04-02T12:09:36.256Z,218.87
2018-04-02T12:11:42.135Z,94.00
2018-04-02T12:13:47.440Z,47.57
2018-04-02T12:15:53.212Z,250.83
2018-04-02T12:17:59.198Z,123.07
2018-04-02T12:20:05.766Z,823.67
2018-04-02T12:22:17.136Z,441.63
2018-04-02T12:24:23.688Z,619.20
2018-04-02T12:26:29.744Z,464.93
2018-04-02T12:28:35.644Z,628.10
2018-04-02T12:30:41.657Z,325.60
2018-04-02T12:32:46.918Z,597.47
2018-04-02T12:34:52.681Z,717.13
2018-04-02T12:36:58.580Z,690.57
2018-04-02T12:39:04.622Z,496.17
2018-04-02T12:41:14.578Z,741.40
2018-04-02T12:43:19.895Z,612.03
2018-04-02T12:45:25.918Z,604.63
2018-04-02T12:47:31.623Z,771.60
2018-04-02T12:49:36.925Z,684.87
2018-04-02T12:51:42.500Z,525.77
2018-04-02T12:53:48.885Z,434.87
2018-04-02T12:55:54.261Z,136.30
2018-04-02T12:57:59.596Z,84.20
2018-04-02T13:00:05.442Z,54.47
2018-04-02T13:04:25.083Z,30.33
2018-04-02T13:06:31.813Z,24.33
2018-04-02T13:08:37.182Z,25.00
2018-04-02T13:10:42.514Z,21.63
2018-04-02T13:12:48.223Z,18.40
2018-04-02T13:14:58.713Z,17.47
2018-04-02T13:17:04.716Z,21.30
2018-04-02T13:19:10.492Z,18.33
2018-04-02T13:21:16.520Z,18.53
2018-04-02T13:23:22.464Z,18.13
2018-04-02T13:25:29.059Z,18.50
2018-04-02T13:27:34.385Z,23.43
2018-04-02T13:29:39.700Z,23.43
2018-04-02T13:31:45.563Z,18.53
2018-04-02T13:33:50.988Z,20.33
2018-04-02T13:35:56.532Z,19.30
2018-04-02T13:38:02.205Z,20.77
2018-04-02T13:40:07.528Z,19.00
2018-04-02T13:42:12.870Z,20.47
2018-04-02T13:44:18.624Z,20.30
2018-04-02T13:46:24.576Z,23.90
2018-04-02T13:48:29.892Z,24.87
2018-04-02T13:50:35.947Z,22.77
2018-04-02T13:52:40.840Z,19.73
2018-04-02T13:54:46.596Z,18.60
2018-04-02T13:56:52.134Z,16.93
2018-04-02T13:58:58.011Z,22.20
2018-04-02T14:01:03.313Z,15.77
2018-04-02T14:03:09.009Z,16.40
2018-04-02T14:05:14.512Z,19.40
2018-04-02T14:07:19.780Z,16.83
2018-04-02T14:09:26.061Z,18.57
2018-04-02T14:11:31.310Z,18.63
2018-04-02T14:13:36.701Z,13.90
2018-04-02T14:15:42.343Z,14.40
2018-04-02T14:17:47.641Z,13.23
2018-04-02T14:19:53.075Z,17.73
2018-04-02T14:21:59.331Z,14.27
2018-04-02T14:24:04.798Z,13.40
2018-04-02T14:26:10.033Z,14.57
2018-04-02T14:28:15.712Z,17.30
2018-04-02T14:30:21.128Z,15.23
2018-04-02T14:32:26.579Z,14.90
2018-04-02T14:34:32.593Z,11.70
2018-04-02T14:36:37.940Z,13.53
2018-04-02T14:38:44.026Z,13.43
2018-04-02T14:40:49.669Z,16.90
2018-04-02T14:42:56.217Z,16.60
2018-04-02T14:45:01.625Z,13.33
2018-04-02T14:47:07.397Z,13.20
2018-04-02T14:49:14.173Z,13.43
2018-04-02T14:51:19.529Z,15.50
2018-04-02T14:53:25.929Z,15.30
2018-04-02T14:55:31.319Z,10.70
2018-04-02T14:57:36.735Z,10.27
2018-04-02T14:59:46.762Z,9.63
2018-04-02T15:01:52.550Z,9.70
2018-04-02T15:03:57.994Z,10.97
2018-04-02T15:06:03.738Z,8.30
2018-04-02T15:08:08.956Z,8.27
2018-04-02T15:10:14.405Z,8.53
2018-04-02T15:12:20.382Z,9.50
2018-04-02T15:14:26.198Z,8.97
2018-04-02T15:16:31.536Z,351.73
2018-04-02T15:18:37.124Z,674.90
2018-04-02T15:20:42.453Z,472.47
2018-04-02T15:22:47.832Z,577.33
2018-04-02T15:24:53.491Z,717.70
2018-04-02T15:26:58.856Z,850.10
2018-04-02T15:29:04.313Z,516.90
2018-04-02T15:31:10.162Z,1047.87
2018-04-02T15:33:15.484Z,1018.57
2018-04-02T15:35:20.884Z,1091.27
2018-04-02T15:37:26.705Z,641.80
2018-04-02T15:39:32.063Z,766.73
2018-04-02T15:41:37.441Z,877.90
2018-04-02T15:43:43.073Z,807.67
2018-04-02T15:45:48.509Z,745.90
2018-04-02T15:47:53.845Z,704.00
2018-04-02T15:49:59.739Z,935.20
2018-04-02T15:52:05.100Z,586.83
2018-04-02T15:54:10.512Z,759.60
2018-04-02T15:56:16.265Z,872.07
2018-04-02T15:58:21.730Z,597.60
2018-04-02T16:00:27.640Z,937.47
2018-04-02T16:02:33.419Z,572.37
2018-04-02T16:04:38.759Z,286.00
2018-04-02T16:06:44.190Z,451.07
2018-04-02T16:08:49.852Z,518.27
2018-04-02T16:10:55.217Z,387.73
2018-04-02T16:13:00.561Z,93.10
2018-04-02T16:15:07.536Z,31.10
2018-04-02T16:19:23.417Z,835.57
2018-04-02T16:21:29.043Z,717.20
2018-04-02T16:23:34.410Z,694.47
2018-04-02T16:25:40.109Z,859.77
2018-04-02T16:27:49.324Z,512.40
2018-04-02T16:29:55.521Z,234.70
2018-04-02T16:32:01.171Z,137.10
2018-04-02T16:34:12.738Z,79.00
2018-04-02T16:36:18.330Z,26.70
2018-04-02T16:38:23.820Z,15.27
2018-04-02T16:40:29.798Z,11.20
2018-04-02T16:42:35.772Z,11.17
2018-04-02T16:44:41.031Z,29.83
2018-04-02T16:46:46.678Z,30.30
2018-04-02T16:48:52.052Z,23.83
2018-04-02T16:50:57.533Z,23.43
2018-04-02T16:53:03.294Z,28.27
2018-04-02T16:55:08.637Z,45.47
2018-04-02T16:57:14.237Z,31.63
2018-04-02T16:59:19.885Z,36.80
2018-04-02T17:01:26.788Z,298.90
2018-04-02T17:03:32.343Z,73.13
2018-04-02T17:05:38.070Z,44.00
2018-04-02T17:07:43.435Z,26.40
2018-04-02T17:09:48.784Z,310.40
2018-04-02T17:11:54.440Z,475.43
2018-04-02T17:13:59.931Z,599.03
2018-04-02T17:16:05.353Z,910.90
2018-04-02T17:18:11.075Z,635.43
2018-04-02T17:20:16.544Z,933.33
2018-04-02T17:22:21.865Z,423.47
2018-04-02T17:24:27.530Z,770.23
2018-04-02T17:26:32.951Z,439.87
2018-04-02T17:28:38.297Z,246.03
2018-04-02T17:30:43.953Z,909.33
2018-04-02T17:32:49.251Z,845.87
2018-04-02T17:34:54.640Z,1349.20
2018-04-02T17:37:00.216Z,1621.10
2018-04-02T17:39:06.386Z,1349.43
2018-04-02T17:41:11.807Z,901.63
2018-04-02T17:43:17.737Z,590.90
2018-04-02T17:45:23.093Z,390.93
2018-04-02T17:47:28.676Z,343.73
2018-04-02T17:49:34.524Z,472.20
2018-04-02T17:51:39.946Z,229.87
2018-04-02T17:53:45.736Z,791.60
2018-04-02T17:55:51.453Z,960.50
2018-04-02T17:57:57.047Z,816.33
2018-04-02T18:00:02.713Z,491.60
2018-04-02T18:02:09.593Z,589.10
2018-04-02T18:04:14.986Z,705.47
2018-04-02T18:06:21.480Z,349.23
2018-04-02T18:08:27.528Z,859.17
2018-04-02T18:10:33.130Z,852.57
2018-04-02T18:12:38.588Z,585.00
2018-04-02T18:14:44.205Z,1344.83
2018-04-02T18:16:49.888Z,1175.93
2018-04-02T18:18:55.391Z,1525.40
2018-04-02T18:21:01.771Z,1546.17
2018-04-02T18:23:07.113Z,1242.07
2018-04-02T18:25:12.631Z,856.97
2018-04-02T18:27:18.463Z,583.00
2018-04-02T18:29:23.848Z,1297.73
2018-04-02T18:31:29.501Z,1242.57
2018-04-02T18:33:35.186Z,1086.00
2018-04-02T18:35:40.680Z,1166.87
2018-04-02T18:37:47.624Z,1336.17
2018-04-02T18:39:54.406Z,1140.90
2018-04-02T18:42:00.215Z,1348.30
2018-04-02T18:44:05.760Z,1137.70
2018-04-02T18:46:11.664Z,1558.20
2018-04-02T18:48:17.018Z,1998.83
2018-04-02T18:50:22.406Z,1999.90
2018-04-02T18:52:28.382Z,1467.60
2018-04-02T18:54:34.167Z,1999.90
2018-04-02T18:56:39.872Z,1293.83
2018-04-02T18:58:45.649Z,989.73
2018-04-02T19:00:51.107Z,843.83
2018-04-02T19:02:56.412Z,1101.47
2018-04-02T19:05:02.135Z,1660.77
2018-04-02T19:07:07.671Z,1134.80
2018-04-02T19:09:13.968Z,1824.23
2018-04-02T19:11:19.702Z,1916.60
2018-04-02T19:13:25.365Z,1609.30
2018-04-02T19:15:31.147Z,1923.53
2018-04-02T19:17:39.006Z,1105.17
2018-04-02T19:19:47.119Z,1472.60
2018-04-02T19:21:52.539Z,1040.67
2018-04-02T19:23:58.304Z,1464.70
2018-04-02T19:26:03.599Z,902.00
2018-04-02T19:28:09.193Z,1197.93
2018-04-02T19:30:15.548Z,1207.50
2018-04-02T19:32:20.933Z,1784.70
2018-04-02T19:34:26.338Z,839.07
2018-04-02T19:36:32.167Z,788.97
2018-04-02T19:38:38.733Z,613.67
2018-04-02T19:40:44.167Z,881.30
2018-04-02T19:42:50.041Z,1031.03
2018-04-02T19:44:55.356Z,1249.73
2018-04-02T19:47:00.792Z,1221.57
2018-04-02T19:49:06.888Z,1538.53
2018-04-02T19:51:13.021Z,890.10
2018-04-02T19:53:19.679Z,618.87
2018-04-02T19:55:25.488Z,459.77
2018-04-02T19:57:30.796Z,235.07
2018-04-02T19:59:37.490Z,98.90
2018-04-02T20:01:43.273Z,33.70
2018-04-02T20:03:48.852Z,30.20
2018-04-02T20:05:54.704Z,14.10
2018-04-02T20:08:00.671Z,12.30
2018-04-02T20:10:06.309Z,11.90
2018-04-02T20:12:12.996Z,9.47
2018-04-02T20:14:19.288Z,10.33
2018-04-02T20:16:24.793Z,7.77
2018-04-02T20:18:30.888Z,7.50
2018-04-02T20:20:37.483Z,7.33
2018-04-02T20:22:43.461Z,6.83
2018-04-02T20:24:49.120Z,6.70
2018-04-02T20:26:55.468Z,6.77
2018-04-02T20:29:01.024Z,6.40
2018-04-02T20:31:06.369Z,6.20
2018-04-02T20:33:12.946Z,7.00
2018-04-02T20:35:18.224Z,7.20
2018-04-02T20:37:23.806Z,6.63
2018-04-02T20:39:29.844Z,6.63
2018-04-02T20:41:35.311Z,6.37
2018-04-02T20:43:40.724Z,7.17
2018-04-02T20:45:46.391Z,7.07
2018-04-02T20:47:51.807Z,6.03
2018-04-02T20:49:57.230Z,5.37
2018-04-02T20:52:03.664Z,6.47
2018-04-02T20:54:09.473Z,6.20
2018-04-02T20:56:14.800Z,5.80
2018-04-02T20:58:20.564Z,6.43
2018-04-02T21:00:25.882Z,5.53
2018-04-02T21:02:31.148Z,6.13
2018-04-02T21:04:37.052Z,6.03
2018-04-02T21:06:42.460Z,6.07
2018-04-02T21:08:49.124Z,4.33
2018-04-02T21:10:55.184Z,5.20
2018-04-02T21:13:00.928Z,4.73
2018-04-02T21:15:06.431Z,5.70
2018-04-02T21:17:12.477Z,4.67
2018-04-02T21:19:17.992Z,3.93
2018-04-02T21:21:23.415Z,5.70
2018-04-02T21:23:29.102Z,3.50
2018-04-02T21:25:34.792Z,3.90
2018-04-02T21:27:40.223Z,3.40
2018-04-02T21:29:46.096Z,4.00
2018-04-02T21:31:56.612Z,3.83
2018-04-02T21:34:03.673Z,3.80
2018-04-02T21:36:23.948Z,3.93
2018-04-02T21:38:32.109Z,3.83
2018-04-02T21:40:43.567Z,4.00
2018-04-02T21:43:02.305Z,4.50
2018-04-02T21:45:08.088Z,4.73
2018-04-02T21:47:15.240Z,4.00
2018-04-02T21:49:22.618Z,3.90
2018-04-02T21:51:29.933Z,4.10
2018-04-02T21:53:35.930Z,3.87
2018-04-02T21:55:42.213Z,3.53
2018-04-02T21:57:47.752Z,4.30
2018-04-02T21:59:53.120Z,3.80
2018-04-02T22:01:59.543Z,4.00
2018-04-02T22:04:05.283Z,3.73
2018-04-02T22:06:15.704Z,3.57
2018-04-02T22:08:21.263Z,5.07
2018-04-02T22:10:26.686Z,3.23
2018-04-02T22:12:32.028Z,3.37
2018-04-02T22:14:37.619Z,3.00
2018-04-02T22:16:42.900Z,3.30
2018-04-02T22:18:48.189Z,3.40
2018-04-02T22:20:53.768Z,3.47
2018-04-02T22:22:59.061Z,3.17
2018-04-02T22:25:04.548Z,3.50
2018-04-02T22:27:10.173Z,3.40
2018-04-02T22:29:15.444Z,3.17
2018-04-02T22:31:21.868Z,2.87
2018-04-02T22:33:27.540Z,2.73
2018-04-02T22:35:32.896Z,3.50
2018-04-02T22:37:38.388Z,2.93
2018-04-02T22:39:44.841Z,3.10
2018-04-02T22:41:50.210Z,2.50
2018-04-02T22:43:55.508Z,2.87
2018-04-02T22:46:01.541Z,3.27
2018-04-02T22:48:06.816Z,2.70
2018-04-02T22:50:13.235Z,5.10
2018-04-02T22:52:20.324Z,2.60
2018-04-02T22:54:25.741Z,2.40
2018-04-02T22:56:31.295Z,3.03
2018-04-02T22:58:36.959Z,3.40
2018-04-02T23:00:42.668Z,2.80
2018-04-02T23:02:48.097Z,2.70
2018-04-02T23:04:53.672Z,2.77
2018-04-02T23:06:59.015Z,2.73
2018-04-02T23:09:04.704Z,3.10
2018-04-02T23:11:10.228Z,2.43
2018-04-02T23:13:15.468Z,3.63
2018-04-02T23:15:20.791Z,3.90
2018-04-02T23:17:26.392Z,3.20
2018-04-02T23:19:31.725Z,3.17
2018-04-02T23:21:37.008Z,2.80
2018-04-02T23:23:42.625Z,2.90
2018-04-02T23:25:47.943Z,3.60
2018-04-02T23:27:53.200Z,2.57
2018-04-02T23:29:58.835Z,3.73
2018-04-02T23:32:04.714Z,2.47
2018-04-02T23:34:09.952Z,5.47
2018-04-02T23:36:15.610Z,2.53
2018-04-02T23:38:21.241Z,4.30
2018-04-02T23:40:26.522Z,2.93
2018-04-02T23:42:32.116Z,2.63
2018-04-02T23:44:37.401Z,3.87
2018-04-02T23:46:42.736Z,3.00
2018-04-02T23:48:48.315Z,3.33
2018-04-02T23:50:54.343Z,3.03
2018-04-02T23:53:00.602Z,2.90
2018-04-02T23:55:09.596Z,2.63
2018-04-02T23:57:24.741Z,4.57
2018-04-02T23:59:35.320Z,2.27
